Time;durP1;ratioP1;P1;durP2;ratioP2;P2;SDS_P1;SDS_P2;PMS_P1;PMS_P2;Temp;Humidity;BMP_temperature;BMP_pressure;BME280_temperature;BME280_humidity;BME280_pressure;Samples;Min_cycle;Max_cycle;Signal;HPM_P1;HPM_P2
2023/04/30 00:02:07;;;;;;;13.95;7.35;;;;;;;7.13;85.25;102220.53;4969551;28;20035;-71
2023/04/30 00:04:33;;;;;;;14.50;8.60;;;;;;;7.13;86.03;102225.03;4969333;28;20057;-71
2023/04/30 00:06:58;;;;;;;16.20;7.90;;;;;;;7.10;85.08;102215.22;4968809;28;20034;-71
2023/04/30 00:09:23;;;;;;;11.85;6.25;;;;;;;7.08;83.06;102217.06;4969375;28;20041;-71
2023/04/30 00:11:49;;;;;;;14.88;8.00;;;;;;;7.06;85.52;102223.50;4969758;28;20077;-71
2023/04/30 00:14:15;;;;;;;14.75;7.32;;;;;;;7.04;86.39;102226.25;4976680;28;20031;-71
2023/04/30 00:16:41;;;;;;;16.30;7.55;;;;;;;7.01;86.39;102229.06;4968184;28;20120;-71
2023/04/30 00:19:07;;;;;;;17.35;9.10;;;;;;;6.99;86.67;102232.75;4969584;28;20037;-71
2023/04/30 00:21:33;;;;;;;15.82;8.05;;;;;;;6.97;85.96;102229.22;4969083;28;20049;-71
2023/04/30 00:24:01;;;;;;;10.15;7.63;;;;;;;6.95;85.35;102232.00;4969716;28;20047;-71
2023/04/30 00:26:26;;;;;;;15.30;7.97;;;;;;;6.95;86.70;102223.88;4969429;28;20129;-71
2023/04/30 00:28:52;;;;;;;11.30;7.57;;;;;;;6.94;85.47;102219.38;4967685;28;20039;-71
2023/04/30 00:31:18;;;;;;;17.98;8.32;;;;;;;6.95;86.52;102222.97;4968647;28;20124;-71
2023/04/30 00:33:43;;;;;;;12.50;7.38;;;;;;;6.93;85.54;102231.16;4970589;28;20027;-71
2023/04/30 00:36:09;;;;;;;15.77;8.93;;;;;;;6.88;85.86;102225.91;4982511;28;20095;-71
2023/04/30 00:38:34;;;;;;;11.98;7.10;;;;;;;6.81;86.13;102226.19;4969483;28;20153;-71
2023/04/30 00:41:00;;;;;;;12.20;7.95;;;;;;;6.76;87.74;102231.75;4967756;28;20733;-72
2023/04/30 00:43:25;;;;;;;12.82;7.75;;;;;;;6.71;88.59;102230.13;4982907;28;20166;-71
2023/04/30 00:45:50;;;;;;;16.92;8.05;;;;;;;6.65;88.04;102239.31;4988742;28;20092;-71
2023/04/30 00:48:16;;;;;;;12.57;8.20;;;;;;;6.59;87.33;102232.31;4989017;28;20104;-71
2023/04/30 00:50:43;;;;;;;16.17;7.88;;;;;;;6.58;87.88;102235.97;4983188;28;20383;-71
2023/04/30 00:53:09;;;;;;;13.75;8.00;;;;;;;6.56;87.50;102235.09;4969183;28;20030;-72
2023/04/30 00:55:35;;;;;;;17.77;8.77;;;;;;;6.58;87.25;102240.50;4983777;28;20039;-71
2023/04/30 00:58:00;;;;;;;16.00;8.35;;;;;;;6.55;88.01;102229.75;4967621;28;20027;-71
2023/04/30 01:00:26;;;;;;;15.38;8.38;;;;;;;6.52;87.89;102228.03;4967792;28;20414;-71
2023/04/30 01:02:52;;;;;;;11.98;7.43;;;;;;;6.51;87.89;102226.28;4967603;28;20055;-71
2023/04/30 01:05:18;;;;;;;13.90;7.75;;;;;;;6.47;88.11;102215.59;4969263;28;20118;-71
2023/04/30 01:07:45;;;;;;;14.73;8.13;;;;;;;6.45;89.13;102222.91;4971390;28;20030;-71
2023/04/30 01:10:15;;;;;;;15.23;8.55;;;;;;;6.42;89.65;102220.28;4971272;28;20495;-70
2023/04/30 01:13:05;;;;;;;12.15;6.32;;;;;;;6.35;89.79;102216.91;4972877;28;20045;-71
2023/04/30 01:16:22;;;;;;;12.02;7.22;;;;;;;6.30;90.06;102219.78;4972711;28;20034;-71
2023/04/30 01:18:55;;;;;;;12.80;7.30;;;;;;;6.24;89.99;102219.94;4969433;28;20069;-70
2023/04/30 01:21:21;;;;;;;12.25;6.80;;;;;;;6.22;89.42;102223.66;4991790;28;20108;-71
2023/04/30 01:24:13;;;;;;;13.43;7.78;;;;;;;6.20;89.07;102221.00;4992393;28;20045;-71
2023/04/30 01:27:03;;;;;;;16.80;7.45;;;;;;;6.20;89.38;102210.19;4971305;28;20175;-70
2023/04/30 01:29:30;;;;;;;17.73;8.80;;;;;;;6.21;89.29;102221.88;4980472;28;20041;-70
2023/04/30 01:31:56;;;;;;;17.73;8.85;;;;;;;6.19;89.28;102211.09;4987054;28;20033;-71
2023/04/30 01:34:22;;;;;;;15.50;8.32;;;;;;;6.17;90.54;102215.69;4983720;28;20542;-71
2023/04/30 01:36:59;;;;;;;14.02;8.70;;;;;;;6.14;90.72;102227.47;4972416;28;20030;-71
2023/04/30 01:39:49;;;;;;;11.98;7.43;;;;;;;6.13;91.20;102223.00;4989679;28;20038;-71
2023/04/30 01:42:29;;;;;;;22.13;9.88;;;;;;;6.12;91.15;102223.06;4990858;28;20050;-71
2023/04/30 01:44:57;;;;;;;16.20;8.85;;;;;;;6.08;92.12;102224.97;4972581;28;20073;-71
2023/04/30 01:47:45;;;;;;;15.00;8.27;;;;;;;6.04;93.06;102233.22;4970557;28;20038;-71
2023/04/30 01:50:19;;;;;;;26.25;9.55;;;;;;;5.99;94.40;102232.47;4977122;28;20391;-72
2023/04/30 01:52:50;;;;;;;16.25;9.32;;;;;;;5.95;94.44;102234.38;4972260;28;20537;-71
2023/04/30 01:55:18;;;;;;;15.52;9.32;;;;;;;5.94;95.39;102238.03;4971068;28;20078;-71
2023/04/30 01:57:54;;;;;;;19.48;10.50;;;;;;;5.95;96.31;102228.97;4970487;28;20019;-71
2023/04/30 02:00:20;;;;;;;16.35;10.38;;;;;;;5.96;95.85;102228.03;5006478;28;20092;-70
2023/04/30 02:02:45;;;;;;;16.60;8.82;;;;;;;5.96;95.00;102229.84;4990170;28;20054;-71
2023/04/30 02:05:11;;;;;;;14.20;8.63;;;;;;;5.94;94.41;102226.34;4986165;28;20109;-71
2023/04/30 02:07:39;;;;;;;15.43;8.48;;;;;;;5.90;93.04;102228.22;4969921;28;20086;-71
2023/04/30 02:10:06;;;;;;;16.17;9.85;;;;;;;5.89;94.35;102237.25;4971110;28;20081;-71
2023/04/30 02:12:32;;;;;;;13.90;8.13;;;;;;;5.85;93.19;102231.03;4971572;28;20090;-71
2023/04/30 02:14:57;;;;;;;17.52;9.50;;;;;;;5.88;94.03;102232.78;4970056;28;20030;-71
2023/04/30 02:17:23;;;;;;;14.85;8.60;;;;;;;5.86;93.14;102229.22;4969533;28;20031;-71
2023/04/30 02:19:48;;;;;;;15.98;8.23;;;;;;;5.87;94.13;102237.31;4969508;28;20180;-71
2023/04/30 02:22:13;;;;;;;14.43;9.02;;;;;;;5.86;93.66;102231.94;4970059;28;20524;-71
2023/04/30 02:24:39;;;;;;;13.35;8.55;;;;;;;5.84;92.86;102237.38;4971428;28;20226;-71
2023/04/30 02:27:04;;;;;;;15.95;8.68;;;;;;;5.83;92.46;102237.44;4971111;28;20050;-71
2023/04/30 02:29:30;;;;;;;16.50;8.23;;;;;;;5.79;92.11;102236.66;4971092;28;20034;-71
2023/04/30 02:31:58;;;;;;;16.90;9.50;;;;;;;5.81;93.99;102233.88;4971219;28;20022;-71
2023/04/30 02:34:23;;;;;;;18.33;9.38;;;;;;;5.78;94.52;102228.56;4981670;28;20523;-71
2023/04/30 02:36:50;;;;;;;17.10;9.50;;;;;;;5.76;94.39;102233.16;4991052;28;20121;-71
2023/04/30 02:39:15;;;;;;;14.60;9.02;;;;;;;5.69;94.05;102234.25;4972272;28;20038;-71
2023/04/30 02:41:40;;;;;;;16.98;9.13;;;;;;;5.67;94.58;102234.28;4989105;28;20089;-71
2023/04/30 02:44:07;;;;;;;14.75;8.82;;;;;;;5.66;93.96;102234.34;4979891;28;20054;-71
2023/04/30 02:46:33;;;;;;;14.60;9.57;;;;;;;5.62;93.76;102229.03;4969679;28;20190;-71
2023/04/30 02:48:58;;;;;;;17.50;9.63;;;;;;;5.61;94.40;102215.59;4984906;28;20494;-71
2023/04/30 02:51:23;;;;;;;16.60;10.15;;;;;;;5.63;94.90;102220.00;4988413;28;20034;-71
2023/04/30 02:53:49;;;;;;;14.05;8.90;;;;;;;5.63;94.81;102224.53;4990627;28;20068;-71
2023/04/30 02:56:15;;;;;;;13.73;8.40;;;;;;;5.60;94.10;102227.34;5005544;28;20104;-71
2023/04/30 02:58:40;;;;;;;17.00;9.30;;;;;;;5.58;95.56;102227.34;4980649;28;20039;-71
2023/04/30 03:01:06;;;;;;;18.83;9.50;;;;;;;5.58;97.02;102221.06;4969141;28;20042;-71
2023/04/30 03:03:32;;;;;;;20.10;9.75;;;;;;;5.54;96.55;102225.66;4969037;28;20142;-71
2023/04/30 03:05:58;;;;;;;17.35;8.60;;;;;;;5.53;95.52;102228.44;4969135;28;20034;-71
2023/04/30 03:08:24;;;;;;;15.85;9.52;;;;;;;5.46;96.19;102222.34;4969596;28;20027;-71
2023/04/30 03:10:50;;;;;;;15.50;9.20;;;;;;;5.45;96.62;102228.63;4970748;28;20050;-71
2023/04/30 03:13:15;;;;;;;17.70;9.60;;;;;;;5.43;96.00;102224.22;4985521;28;20031;-71
2023/04/30 03:15:41;;;;;;;17.90;9.10;;;;;;;5.40;95.69;102224.31;4970469;28;20109;-71
2023/04/30 03:18:06;;;;;;;16.90;10.27;;;;;;;5.36;97.12;102223.50;4970536;28;20042;-70
2023/04/30 03:20:32;;;;;;;18.42;10.02;;;;;;;5.33;97.39;102221.78;4968751;28;20042;-71
2023/04/30 03:22:57;;;;;;;18.77;10.32;;;;;;;5.31;97.44;102223.63;4968797;28;20030;-71
2023/04/30 03:25:23;;;;;;;17.27;9.48;;;;;;;5.27;97.89;102230.06;4970248;28;20491;-71
2023/04/30 03:27:49;;;;;;;16.27;10.68;;;;;;;5.26;98.78;102232.78;4969383;28;20035;-71
2023/04/30 03:30:15;;;;;;;19.55;11.65;;;;;;;5.21;97.77;102218.53;4969518;28;20034;-71
2023/04/30 03:32:40;;;;;;;16.75;10.73;;;;;;;5.25;97.88;102229.22;4968435;28;20077;-71
2023/04/30 03:35:07;;;;;;;18.85;10.45;;;;;;;5.23;97.83;102225.69;4982332;28;20438;-71
2023/04/30 03:37:32;;;;;;;21.35;10.43;;;;;;;5.19;98.51;102226.69;4988071;28;20038;-71
2023/04/30 03:39:58;;;;;;;17.42;10.20;;;;;;;5.22;99.39;102228.41;4974160;28;20034;-71
2023/04/30 03:42:23;;;;;;;20.67;11.15;;;;;;;5.21;99.59;102232.91;4968384;28;20437;-71
2023/04/30 03:44:48;;;;;;;19.20;11.20;;;;;;;5.20;100.00;102232.97;4969240;28;20499;-70
2023/04/30 03:47:14;;;;;;;16.73;10.13;;;;;;;5.19;98.94;102228.50;4968404;28;20037;-71
2023/04/30 03:49:39;;;;;;;18.05;9.38;;;;;;;5.17;98.68;102230.34;4969840;28;20242;-71
2023/04/30 03:52:06;;;;;;;19.75;11.13;;;;;;;5.14;100.00;102234.03;4984080;28;20030;-71
2023/04/30 03:54:32;;;;;;;20.50;11.05;;;;;;;5.14;100.00;102236.72;4985635;28;20057;-71
2023/04/30 03:56:59;;;;;;;16.23;10.27;;;;;;;5.15;100.00;102238.50;4969562;28;20057;-71
2023/04/30 03:59:24;;;;;;;21.50;12.55;;;;;;;5.16;100.00;102234.88;4968213;28;20058;-71
2023/04/30 04:01:51;;;;;;;17.95;11.90;;;;;;;5.16;100.00;102242.06;4968371;28;20463;-71
2023/04/30 04:04:16;;;;;;;17.92;9.85;;;;;;;5.11;99.13;102247.59;4968436;28;20066;-71
2023/04/30 04:06:42;;;;;;;20.35;10.02;;;;;;;5.12;99.71;102243.97;4981633;28;20088;-71
2023/04/30 04:09:07;;;;;;;16.38;9.27;;;;;;;5.12;99.61;102247.53;4987849;28;20022;-71
2023/04/30 04:11:33;;;;;;;24.35;10.93;;;;;;;5.11;99.62;102236.81;4989011;28;20093;-70
2023/04/30 04:13:59;;;;;;;17.45;10.02;;;;;;;5.09;98.56;102250.34;4970452;28;20176;-70
2023/04/30 04:16:24;;;;;;;17.08;11.13;;;;;;;5.08;99.40;102244.97;4988744;28;20041;-71
2023/04/30 04:18:50;;;;;;;17.95;10.43;;;;;;;5.07;98.62;102240.50;4971415;28;20034;-71
2023/04/30 04:21:15;;;;;;;25.35;12.93;;;;;;;5.07;100.00;102241.38;4986907;28;20035;-70
2023/04/30 04:23:41;;;;;;;20.25;10.35;;;;;;;5.06;99.25;102246.84;4980125;28;20550;-71
2023/04/30 04:26:07;;;;;;;18.30;10.38;;;;;;;5.04;98.62;102243.31;4968030;28;20039;-71
2023/04/30 04:28:32;;;;;;;18.05;9.80;;;;;;;5.04;97.74;102248.69;4971401;28;20391;-71
2023/04/30 04:30:58;;;;;;;17.38;11.30;;;;;;;5.06;98.35;102252.22;4969483;28;20390;-71
2023/04/30 04:33:23;;;;;;;20.05;12.05;;;;;;;5.08;98.17;102250.38;4968186;28;20093;-71
2023/04/30 04:35:50;;;;;;;17.35;11.18;;;;;;;5.19;97.80;102256.38;4968050;28;20128;-71
2023/04/30 04:38:15;;;;;;;20.52;11.00;;;;;;;5.27;98.03;102254.34;4969739;28;20042;-71
2023/04/30 04:40:51;;;;;;;17.85;11.23;;;;;;;5.37;98.34;102250.47;4967520;28;20062;-70
2023/04/30 04:43:17;;;;;;;17.90;10.50;;;;;;;5.56;97.52;102258.03;4984236;28;20113;-71
2023/04/30 04:45:42;;;;;;;17.40;10.13;;;;;;;5.66;96.79;102251.44;4971884;28;20038;-71
2023/04/30 04:48:08;;;;;;;19.85;10.63;;;;;;;5.66;96.34;102255.97;4971840;28;20030;-70
2023/04/30 04:50:33;;;;;;;16.08;9.57;;;;;;;5.69;95.42;102259.47;4971698;28;20129;-71
2023/04/30 04:52:58;;;;;;;17.98;10.18;;;;;;;5.71;95.14;102267.50;4971756;28;20059;-70
2023/04/30 04:55:24;;;;;;;17.45;10.40;;;;;;;5.73;95.56;102261.09;4971315;28;20034;-70
2023/04/30 04:57:50;;;;;;;15.10;9.88;;;;;;;5.75;94.80;102259.25;4971733;28;20034;-71
2023/04/30 05:00:16;;;;;;;16.95;10.60;;;;;;;5.74;94.97;102264.72;4972797;28;20109;-71
2023/04/30 05:02:42;;;;;;;16.38;10.25;;;;;;;5.73;94.86;102258.41;4971189;28;20133;-71
2023/04/30 05:05:08;;;;;;;13.93;9.43;;;;;;;5.76;94.82;102257.44;4971402;28;20534;-70
2023/04/30 05:07:34;;;;;;;18.60;10.63;;;;;;;5.74;95.82;102259.31;4971451;28;20117;-71
2023/04/30 05:09:59;;;;;;;18.23;10.27;;;;;;;5.77;96.55;102268.19;4974714;28;20026;-71
2023/04/30 05:12:24;;;;;;;19.95;11.25;;;;;;;5.79;97.30;102262.78;4972770;28;20073;-71
2023/04/30 05:14:50;;;;;;;16.30;10.75;;;;;;;5.80;96.89;102259.13;4972689;28;20050;-70
2023/04/30 05:17:15;;;;;;;17.92;11.30;;;;;;;5.84;98.53;102259.00;4971993;28;20042;-71
2023/04/30 05:19:41;;;;;;;20.90;11.73;;;;;;;5.87;99.45;102258.00;4980585;28;20392;-70
2023/04/30 05:22:06;;;;;;;20.55;11.95;;;;;;;6.04;99.44;102250.31;4988942;28;20023;-71
2023/04/30 05:24:31;;;;;;;18.92;11.57;;;;;;;6.17;99.33;102255.34;4981238;28;20045;-71
2023/04/30 05:26:57;;;;;;;21.52;11.25;;;;;;;6.21;99.35;102251.59;4985223;28;20085;-71
2023/04/30 05:29:22;;;;;;;17.70;10.27;;;;;;;6.21;98.28;102262.41;4973625;28;20089;-71
2023/04/30 05:31:47;;;;;;;14.07;10.13;;;;;;;6.24;97.13;102254.19;4972739;28;20038;-71
2023/04/30 05:34:13;;;;;;;17.77;10.63;;;;;;;6.28;98.41;102250.47;4972099;28;20107;-71
2023/04/30 05:36:38;;;;;;;21.77;12.52;;;;;;;6.35;99.01;102258.34;4970745;28;20042;-71
2023/04/30 05:39:03;;;;;;;18.80;12.10;;;;;;;6.38;99.50;102258.22;4972036;28;20043;-71
2023/04/30 05:41:29;;;;;;;18.08;11.63;;;;;;;6.46;99.14;102257.97;4981324;28;20608;-71
2023/04/30 05:43:54;;;;;;;21.33;12.88;;;;;;;6.55;100.00;102267.63;4981643;28;20034;-70
2023/04/30 05:46:20;;;;;;;22.30;14.65;;;;;;;6.67;100.00;102256.41;4970172;28;20038;-71
2023/04/30 05:48:45;;;;;;;24.77;14.32;;;;;;;6.78;100.00;102259.63;4972052;28;20054;-71
2023/04/30 05:51:10;;;;;;;22.35;13.30;;;;;;;6.94;99.98;102256.38;4971858;28;20042;-71
2023/04/30 05:53:36;;;;;;;20.10;13.27;;;;;;;7.03;100.00;102258.75;4971524;28;20121;-71
2023/04/30 05:56:02;;;;;;;27.60;15.05;;;;;;;7.15;99.99;102255.63;4971697;28;20034;-71
2023/04/30 05:58:27;;;;;;;20.40;12.68;;;;;;;7.25;99.79;102256.19;4969970;28;20475;-71
2023/04/30 06:00:53;;;;;;;18.75;12.90;;;;;;;7.31;98.48;102258.66;4970820;28;20475;-71
2023/04/30 06:03:19;;;;;;;20.65;13.35;;;;;;;7.30;99.03;102249.66;4970954;28;20510;-71
2023/04/30 06:05:45;;;;;;;17.70;12.05;;;;;;;7.33;98.09;102254.97;4977839;28;20046;-71
2023/04/30 06:08:10;;;;;;;19.35;13.23;;;;;;;7.39;98.35;102253.88;4985704;28;20117;-72
2023/04/30 06:10:37;;;;;;;22.20;12.90;;;;;;;7.47;97.96;102257.19;4976275;28;20177;-71
2023/04/30 06:13:03;;;;;;;21.80;14.18;;;;;;;7.54;97.54;102247.88;4985769;28;20068;-71
2023/04/30 06:15:28;;;;;;;22.88;14.43;;;;;;;7.70;98.38;102260.88;4971144;28;20428;-71
2023/04/30 06:17:53;;;;;;;20.65;13.35;;;;;;;7.95;97.75;102258.97;4974766;28;20073;-71
2023/04/30 06:20:19;;;;;;;25.92;14.70;;;;;;;8.09;95.86;102261.16;4971272;28;20035;-70
2023/04/30 06:22:45;;;;;;;21.95;13.48;;;;;;;8.12;95.04;102256.50;4981886;28;20045;-71
2023/04/30 06:25:10;;;;;;;21.90;13.35;;;;;;;8.17;95.58;102257.19;4971302;28;20511;-71
2023/04/30 06:27:36;;;;;;;17.85;12.25;;;;;;;8.22;95.54;102258.84;4969652;28;20085;-71
2023/04/30 06:30:01;;;;;;;21.40;12.50;;;;;;;8.37;95.33;102252.81;4971046;28;20480;-70
2023/04/30 06:32:27;;;;;;;19.33;11.63;;;;;;;8.98;93.98;102249.38;4970428;28;20027;-70
2023/04/30 06:34:54;;;;;;;17.27;10.13;;;;;;;9.18;90.59;102246.66;4971460;28;20070;-70
2023/04/30 06:37:20;;;;;;;17.67;11.00;;;;;;;9.00;90.84;102245.66;4970347;28;20034;-70
2023/04/30 06:39:45;;;;;;;18.33;11.77;;;;;;;8.89;91.62;102251.53;4970393;28;20058;-70
2023/04/30 06:42:10;;;;;;;16.25;10.75;;;;;;;8.84;92.50;102245.41;4969876;28;20065;-70
2023/04/30 06:44:36;;;;;;;15.45;10.10;;;;;;;8.92;91.96;102240.53;4987126;28;20597;-71
2023/04/30 06:47:02;;;;;;;12.10;9.55;;;;;;;9.66;89.55;102248.13;4987297;28;20076;-71
2023/04/30 06:49:27;;;;;;;14.02;9.80;;;;;;;9.82;87.39;102245.56;4984639;28;20041;-70
2023/04/30 06:51:54;;;;;;;15.77;10.43;;;;;;;10.00;86.84;102244.69;4987490;28;20548;-71
2023/04/30 06:54:21;;;;;;;19.63;11.23;;;;;;;9.97;86.88;102248.44;4970160;28;20034;-70
2023/04/30 06:56:47;;;;;;;18.10;11.13;;;;;;;9.83;87.42;102250.03;4985303;28;20046;-71
2023/04/30 06:59:12;;;;;;;19.80;11.20;;;;;;;9.87;87.87;102255.25;4970279;28;20035;-71
2023/04/30 07:01:37;;;;;;;15.98;9.85;;;;;;;9.93;86.78;102263.16;4968723;28;20029;-71
2023/04/30 07:04:03;;;;;;;18.45;9.73;;;;;;;9.89;87.48;102260.66;4970105;28;20051;-71
2023/04/30 07:06:29;;;;;;;14.70;9.73;;;;;;;9.91;87.17;102256.00;4970129;28;20046;-71
2023/04/30 07:08:54;;;;;;;15.68;9.38;;;;;;;10.05;87.22;102264.41;4969529;28;20031;-71
2023/04/30 07:11:20;;;;;;;18.10;10.57;;;;;;;10.15;86.52;102262.13;4970171;28;20038;-72
2023/04/30 07:13:45;;;;;;;16.00;10.00;;;;;;;10.06;86.75;102265.28;4971301;28;20226;-71
2023/04/30 07:16:10;;;;;;;15.63;9.82;;;;;;;10.03;87.25;102262.72;4969287;28;20509;-71
2023/04/30 07:18:36;;;;;;;18.80;10.65;;;;;;;10.06;86.84;102260.72;4970213;28;20030;-70
2023/04/30 07:21:02;;;;;;;17.08;10.18;;;;;;;10.09;86.22;102262.41;4977528;28;20038;-71
2023/04/30 07:23:28;;;;;;;15.55;10.65;;;;;;;10.14;86.82;102261.25;4968988;28;20083;-71
2023/04/30 07:25:53;;;;;;;17.17;9.93;;;;;;;10.50;85.99;102246.84;4970232;28;20070;-71
2023/04/30 07:28:18;;;;;;;16.02;10.52;;;;;;;10.61;85.35;102254.47;4970434;28;20046;-71
2023/04/30 07:30:44;;;;;;;16.85;10.25;;;;;;;10.53;82.38;102252.09;4970190;28;20054;-71
2023/04/30 07:33:09;;;;;;;16.45;10.15;;;;;;;10.48;86.22;102255.06;4970261;28;20118;-70
2023/04/30 07:35:35;;;;;;;18.02;10.35;;;;;;;10.44;86.11;102242.59;4971294;28;20067;-71
2023/04/30 07:38:00;;;;;;;15.80;11.27;;;;;;;10.46;86.00;102239.78;4968369;28;20450;-71
2023/04/30 07:40:26;;;;;;;18.02;10.93;;;;;;;10.46;86.23;102245.22;4970144;28;20047;-70
2023/04/30 07:42:51;;;;;;;16.85;11.25;;;;;;;10.48;86.28;102244.16;4969800;28;20035;-71
2023/04/30 07:45:17;;;;;;;20.27;10.95;;;;;;;10.52;85.56;102239.47;4970281;28;20093;-72
2023/04/30 07:47:42;;;;;;;13.27;9.95;;;;;;;10.62;84.82;102238.03;4968412;28;20039;-71
2023/04/30 07:50:08;;;;;;;17.88;11.63;;;;;;;10.99;87.26;102239.75;4968565;28;20011;-71
2023/04/30 07:52:33;;;;;;;15.88;11.38;;;;;;;11.43;82.69;102246.56;4969383;28;20077;-71
2023/04/30 07:54:58;;;;;;;20.65;10.85;;;;;;;11.82;81.78;102245.38;4970036;28;20033;-71
2023/04/30 07:57:25;;;;;;;15.77;10.98;;;;;;;12.15;81.82;102254.41;4968151;28;20107;-71
2023/04/30 07:59:54;;;;;;;16.90;10.77;;;;;;;12.70;80.33;102247.63;4969541;28;20038;-71
2023/04/30 08:02:20;;;;;;;15.52;10.23;;;;;;;13.09;78.42;102251.66;4969651;28;20164;-72
2023/04/30 08:04:46;;;;;;;13.95;9.75;;;;;;;13.41;74.10;102245.16;4968752;28;20043;-70
2023/04/30 08:07:11;;;;;;;14.60;10.05;;;;;;;13.73;77.54;102239.53;4969335;28;20101;-71
2023/04/30 08:09:36;;;;;;;18.25;10.18;;;;;;;13.84;72.06;102252.50;4969727;28;20049;-71
2023/04/30 08:12:03;;;;;;;13.88;9.50;;;;;;;13.77;72.27;102252.03;4969478;28;20022;-71
2023/04/30 08:14:29;;;;;;;14.73;9.40;;;;;;;14.24;73.93;102256.28;4969756;28;20467;-71
2023/04/30 08:16:57;;;;;;;14.65;9.15;;;;;;;14.58;68.65;102260.44;4968189;28;20054;-71
2023/04/30 08:19:22;;;;;;;13.38;8.93;;;;;;;14.93;73.27;102252.59;4984497;28;20398;-71
2023/04/30 08:21:48;;;;;;;13.70;9.20;;;;;;;15.63;68.28;102256.88;4969295;28;20035;-72
2023/04/30 08:24:13;;;;;;;11.38;9.05;;;;;;;16.11;68.97;102255.22;4967946;28;20097;-71
2023/04/30 08:26:38;;;;;;;13.93;8.93;;;;;;;16.22;65.66;102249.81;4969488;28;20043;-71
2023/04/30 08:29:03;;;;;;;10.65;8.52;;;;;;;15.99;63.94;102253.38;4969163;28;20371;-72
2023/04/30 08:31:29;;;;;;;12.80;9.63;;;;;;;15.91;65.17;102242.97;4969216;28;20494;-72
2023/04/30 08:33:54;;;;;;;11.55;8.25;;;;;;;16.11;67.27;102248.88;4969402;28;20479;-71
2023/04/30 08:36:20;;;;;;;14.07;9.18;;;;;;;16.45;65.33;102249.97;4969230;28;20045;-71
2023/04/30 08:38:45;;;;;;;12.68;8.93;;;;;;;16.30;61.42;102247.38;4968490;28;20033;-71
2023/04/30 08:41:12;;;;;;;15.05;9.88;;;;;;;16.25;63.63;102244.09;4967947;28;20327;-71
2023/04/30 08:43:39;;;;;;;18.63;9.40;;;;;;;16.62;69.11;102235.84;4969041;28;20410;-71
2023/04/30 08:46:04;;;;;;;13.32;9.38;;;;;;;16.92;63.46;102238.16;4968021;28;20039;-72
2023/04/30 08:48:30;;;;;;;13.57;9.68;;;;;;;17.21;64.44;102235.03;4969022;28;20513;-71
2023/04/30 08:51:01;;;;;;;12.18;8.90;;;;;;;17.20;64.09;102247.00;4968794;28;20471;-71
2023/04/30 08:53:29;;;;;;;11.77;9.00;;;;;;;17.23;60.20;102244.03;4969352;28;20576;-72
2023/04/30 08:55:54;;;;;;;15.70;8.68;;;;;;;16.68;58.47;102248.25;4969102;28;20543;-72
2023/04/30 08:58:20;;;;;;;11.88;8.40;;;;;;;16.43;61.28;102238.25;4983629;28;20129;-71
2023/04/30 09:00:45;;;;;;;11.68;9.18;;;;;;;16.49;63.61;102235.03;4969660;28;20048;-71
2023/04/30 09:03:10;;;;;;;15.38;9.07;;;;;;;16.86;63.18;102237.75;4968830;28;20051;-72
2023/04/30 09:05:39;;;;;;;14.60;9.05;;;;;;;17.05;60.79;102238.97;4968942;28;20039;-72
2023/04/30 09:08:07;;;;;;;12.32;8.68;;;;;;;17.06;57.67;102237.97;4969150;28;20040;-71
2023/04/30 09:10:33;;;;;;;13.68;8.35;;;;;;;16.83;61.72;102236.09;4969136;28;20412;-72
2023/04/30 09:13:06;;;;;;;11.70;8.18;;;;;;;17.00;58.76;102232.06;4969201;28;20039;-72
2023/04/30 09:15:33;;;;;;;10.95;7.78;;;;;;;16.70;59.73;102229.78;4969214;28;20047;-72
2023/04/30 09:18:12;;;;;;;10.13;7.78;;;;;;;16.72;62.70;102230.56;4983821;28;20069;-71
2023/04/30 09:20:52;;;;;;;14.52;8.25;;;;;;;17.41;63.87;102227.97;4968746;28;20046;-72
2023/04/30 09:23:17;;;;;;;9.77;6.95;;;;;;;17.98;60.72;102227.91;4969483;28;20089;-71
2023/04/30 09:25:42;;;;;;;10.52;8.35;;;;;;;18.14;55.83;102226.66;4968918;28;20031;-71
2023/04/30 09:28:12;;;;;;;11.40;8.25;;;;;;;17.74;55.60;102225.28;4970035;28;20062;-71
2023/04/30 09:30:39;;;;;;;10.32;7.75;;;;;;;17.06;55.30;102235.22;4972513;28;20050;-71
2023/04/30 09:33:05;;;;;;;11.73;7.38;;;;;;;16.84;57.75;102229.63;4972276;28;20133;-72
2023/04/30 09:35:31;;;;;;;10.32;7.43;;;;;;;16.93;57.82;102219.81;4972208;28;20489;-72
2023/04/30 09:38:00;;;;;;;9.73;7.55;;;;;;;17.05;57.88;102227.09;4971908;28;20034;-73
2023/04/30 09:40:40;;;;;;;14.52;8.73;;;;;;;17.25;61.39;102222.78;4970926;28;20398;-73
2023/04/30 09:43:06;;;;;;;11.27;8.02;;;;;;;17.58;56.70;102219.25;4971991;28;20042;-72
2023/04/30 09:45:42;;;;;;;9.00;7.18;;;;;;;17.76;58.41;102219.63;4971989;28;20363;-72
2023/04/30 09:48:09;;;;;;;10.55;8.35;;;;;;;18.06;56.86;102219.03;4971961;28;20526;-72
2023/04/30 09:50:39;;;;;;;12.38;8.05;;;;;;;17.48;54.89;102230.06;4971949;28;20491;-73
2023/04/30 09:53:09;;;;;;;11.88;7.97;;;;;;;17.16;57.91;102227.16;4986806;28;20498;-72
2023/04/30 09:55:36;;;;;;;9.68;6.63;;;;;;;17.11;56.74;102217.47;4972067;28;20398;-72
2023/04/30 09:58:06;;;;;;;7.20;5.70;;;;;;;17.16;56.44;102223.50;4971576;28;20039;-73
2023/04/30 10:00:33;;;;;;;9.02;6.30;;;;;;;17.16;56.34;102218.00;4970662;28;20046;-72
2023/04/30 10:03:04;;;;;;;9.55;6.15;;;;;;;17.73;56.90;102212.53;4971482;28;20054;-71
2023/04/30 10:05:31;;;;;;;13.23;8.15;;;;;;;17.71;54.82;102211.72;4971821;28;20049;-72
2023/04/30 10:07:56;;;;;;;10.18;7.57;;;;;;;18.06;54.58;102214.41;4970022;28;20104;-72
2023/04/30 10:10:25;;;;;;;10.90;7.28;;;;;;;17.87;53.20;102211.41;4971612;28;20034;-73
2023/04/30 10:12:55;;;;;;;9.48;7.80;;;;;;;17.63;54.54;102205.97;4970458;28;20546;-72
2023/04/30 10:15:43;;;;;;;12.57;7.38;;;;;;;18.22;59.97;102197.47;4986290;28;20050;-73
2023/04/30 10:18:16;;;;;;;8.48;5.88;;;;;;;18.44;54.11;102203.94;4971465;28;20046;-72
2023/04/30 10:20:45;;;;;;;10.07;6.70;;;;;;;18.06;52.68;102200.63;4971331;28;20043;-72
2023/04/30 10:23:11;;;;;;;9.10;7.03;;;;;;;18.16;57.82;102195.22;4969994;28;20039;-72
2023/04/30 10:25:39;;;;;;;10.20;7.28;;;;;;;18.32;53.36;102192.94;4969730;28;20138;-72
2023/04/30 10:28:07;;;;;;;10.10;7.35;;;;;;;18.66;54.55;102187.34;4970129;28;20033;-72
2023/04/30 10:30:34;;;;;;;8.13;6.30;;;;;;;18.75;52.50;102197.63;4971525;28;20035;-72
2023/04/30 10:33:14;;;;;;;10.70;7.22;;;;;;;18.41;53.94;102193.16;4972939;28;20041;-72
2023/04/30 10:35:51;;;;;;;9.75;7.50;;;;;;;18.08;54.51;102187.59;4982142;28;20213;-72
2023/04/30 10:38:23;;;;;;;9.27;6.95;;;;;;;18.08;52.74;102186.72;4986886;28;20560;-73
2023/04/30 10:40:50;;;;;;;9.15;7.88;;;;;;;18.21;53.94;102181.94;4989425;28;20188;-72
2023/04/30 10:43:20;;;;;;;9.30;7.47;;;;;;;18.39;54.62;102176.78;4982587;28;20133;-73
2023/04/30 10:45:46;;;;;;;11.07;7.43;;;;;;;18.22;53.48;102169.03;4977723;28;20422;-72
2023/04/30 10:48:14;;;;;;;11.10;8.55;;;;;;;18.34;53.69;102168.03;4974149;28;20038;-72
2023/04/30 10:50:45;;;;;;;12.15;7.75;;;;;;;18.70;55.11;102165.91;4977286;28;20258;-72
2023/04/30 10:53:17;;;;;;;9.90;7.85;;;;;;;19.13;54.51;102174.13;4970084;28;20050;-72
2023/04/30 10:56:07;;;;;;;8.73;7.57;;;;;;;19.36;55.44;102166.56;4970231;28;20462;-72
2023/04/30 10:58:38;;;;;;;9.32;6.57;;;;;;;19.53;53.44;102156.75;4970659;28;20077;-72
2023/04/30 11:01:05;;;;;;;9.43;7.03;;;;;;;19.72;49.48;102151.34;4970995;28;20042;-71
2023/04/30 11:03:34;;;;;;;8.23;6.38;;;;;;;20.24;52.23;102149.38;4972763;28;20167;-72
2023/04/30 11:06:07;;;;;;;6.78;5.85;;;;;;;20.54;48.58;102153.06;4989482;28;20052;-71
2023/04/30 11:08:34;;;;;;;7.65;6.07;;;;;;;20.25;48.13;102145.59;4987299;28;20065;-72
2023/04/30 11:11:04;;;;;;;11.38;6.90;;;;;;;20.18;48.24;102133.34;4968977;28;20026;-72
2023/04/30 11:13:46;;;;;;;6.45;5.20;;;;;;;20.52;52.72;102131.09;4970585;28;21752;-71
2023/04/30 11:16:14;;;;;;;6.72;5.88;;;;;;;20.69;46.25;102139.69;4970619;28;20088;-72
2023/04/30 11:18:44;;;;;;;7.25;5.25;;;;;;;20.19;48.07;102135.09;4970277;28;20216;-72
2023/04/30 11:21:10;;;;;;;7.28;6.00;;;;;;;20.00;47.38;102133.13;4970103;28;20327;-72